sensor_id;sensor_type;location;lat;lon;timestamp;pressure;altitude;pressure_sealevel;temperature;humidity
3260;BME280;22469;48.150;14.004;2023-02-21T00:00:39;98395.75;;;9.84;56.41
3260;BME280;22469;48.150;14.004;2023-02-21T00:03:25;98390.63;;;9.84;56.47
3260;BME280;22469;48.150;14.004;2023-02-21T00:06:11;98392.38;;;9.82;56.31
3260;BME280;22469;48.150;14.004;2023-02-21T00:08:56;98386.44;;;9.81;55.95
3260;BME280;22469;48.150;14.004;2023-02-21T00:11:42;98381.25;;;9.83;56.35
3260;BME280;22469;48.150;14.004;2023-02-21T00:14:28;98379.59;;;9.82;56.32
3260;BME280;22469;48.150;14.004;2023-02-21T00:17:14;98386.50;;;9.78;56.04
3260;BME280;22469;48.150;14.004;2023-02-21T00:20:00;98384.84;;;9.76;56.11
3260;BME280;22469;48.150;14.004;2023-02-21T00:22:45;98384.91;;;9.72;55.94
3260;BME280;22469;48.150;14.004;2023-02-21T00:25:31;98386.63;;;9.72;55.60
3260;BME280;22469;48.150;14.004;2023-02-21T00:28:17;98379.06;;;9.66;55.42
3260;BME280;22469;48.150;14.004;2023-02-21T00:31:03;98380.81;;;9.65;55.72
3260;BME280;22469;48.150;14.004;2023-02-21T00:33:49;98383.44;;;9.62;55.63
3260;BME280;22469;48.150;14.004;2023-02-21T00:36:35;98387.72;;;9.62;55.60
3260;BME280;22469;48.150;14.004;2023-02-21T00:39:20;98384.38;;;9.58;55.49
3260;BME280;22469;48.150;14.004;2023-02-21T00:42:06;98392.13;;;9.55;55.84
3260;BME280;22469;48.150;14.004;2023-02-21T00:44:51;98385.38;;;9.51;55.89
3260;BME280;22469;48.150;14.004;2023-02-21T00:47:36;98380.31;;;9.48;55.81
3260;BME280;22469;48.150;14.004;2023-02-21T00:50:22;98378.72;;;9.44;56.15
3260;BME280;22469;48.150;14.004;2023-02-21T00:53:07;98376.16;;;9.42;56.06
3260;BME280;22469;48.150;14.004;2023-02-21T00:55:53;98385.63;;;9.40;55.84
3260;BME280;22469;48.150;14.004;2023-02-21T00:58:38;98388.25;;;9.37;56.17
3260;BME280;22469;48.150;14.004;2023-02-21T01:01:24;98389.97;;;9.37;56.67
3260;BME280;22469;48.150;14.004;2023-02-21T01:04:09;98387.41;;;9.37;57.18
3260;BME280;22469;48.150;14.004;2023-02-21T01:06:55;98391.56;;;9.41;56.73
3260;BME280;22469;48.150;14.004;2023-02-21T01:09:40;98386.41;;;9.44;56.34
3260;BME280;22469;48.150;14.004;2023-02-21T01:12:26;98384.44;;;9.54;56.04
3260;BME280;22469;48.150;14.004;2023-02-21T01:15:11;98386.81;;;9.63;55.13
3260;BME280;22469;48.150;14.004;2023-02-21T01:17:58;98381.59;;;9.67;54.90
3260;BME280;22469;48.150;14.004;2023-02-21T01:20:44;98392.41;;;9.80;54.80
3260;BME280;22469;48.150;14.004;2023-02-21T01:23:30;98380.41;;;9.82;54.40
3260;BME280;22469;48.150;14.004;2023-02-21T01:26:16;98381.50;;;10.09;53.79
3260;BME280;22469;48.150;14.004;2023-02-21T01:29:02;98376.88;;;10.24;53.46
3260;BME280;22469;48.150;14.004;2023-02-21T01:31:49;98368.06;;;10.35;53.24
3260;BME280;22469;48.150;14.004;2023-02-21T01:34:35;98362.00;;;10.38;52.64
3260;BME280;22469;48.150;14.004;2023-02-21T01:37:20;98365.53;;;10.34;52.10
3260;BME280;22469;48.150;14.004;2023-02-21T01:40:06;98358.31;;;10.48;52.73
3260;BME280;22469;48.150;14.004;2023-02-21T01:42:53;98355.56;;;10.56;51.99
3260;BME280;22469;48.150;14.004;2023-02-21T01:45:46;98364.88;;;10.60;51.57
3260;BME280;22469;48.150;14.004;2023-02-21T01:48:34;98368.09;;;10.66;51.69
3260;BME280;22469;48.150;14.004;2023-02-21T01:51:26;98367.16;;;10.71;51.82
3260;BME280;22469;48.150;14.004;2023-02-21T01:54:21;98368.97;;;10.65;51.41
3260;BME280;22469;48.150;14.004;2023-02-21T01:57:10;98355.41;;;10.62;51.48
3260;BME280;22469;48.150;14.004;2023-02-21T01:59:59;98360.91;;;10.48;51.73
3260;BME280;22469;48.150;14.004;2023-02-21T02:03:06;98353.75;;;10.59;51.45
3260;BME280;22469;48.150;14.004;2023-02-21T02:05:56;98352.69;;;10.66;51.38
3260;BME280;22469;48.150;14.004;2023-02-21T02:08:44;98345.13;;;10.62;50.89
3260;BME280;22469;48.150;14.004;2023-02-21T02:11:53;98350.19;;;10.65;51.21
3260;BME280;22469;48.150;14.004;2023-02-21T02:24:30;98333.16;;;10.62;51.43
3260;BME280;22469;48.150;14.004;2023-02-21T02:32:55;98342.88;;;10.51;51.67
3260;BME280;22469;48.150;14.004;2023-02-21T02:35:38;98338.63;;;10.50;51.24
3260;BME280;22469;48.150;14.004;2023-02-21T02:38:21;98332.59;;;10.51;51.25
3260;BME280;22469;48.150;14.004;2023-02-21T02:41:02;98328.53;;;10.44;50.96
3260;BME280;22469;48.150;14.004;2023-02-21T02:46:18;98337.09;;;10.43;50.89
3260;BME280;22469;48.150;14.004;2023-02-21T02:48:54;98322.28;;;10.53;50.76
3260;BME280;22469;48.150;14.004;2023-02-21T02:51:25;98339.38;;;10.54;50.64
3260;BME280;22469;48.150;14.004;2023-02-21T02:53:53;98333.50;;;10.50;50.57
3260;BME280;22469;48.150;14.004;2023-02-21T02:56:21;98336.84;;;10.52;50.62
3260;BME280;22469;48.150;14.004;2023-02-21T02:58:56;98338.50;;;10.55;50.69
3260;BME280;22469;48.150;14.004;2023-02-21T03:04:55;98330.03;;;10.51;50.75
3260;BME280;22469;48.150;14.004;2023-02-21T03:11:11;98328.88;;;10.30;50.91
3260;BME280;22469;48.150;14.004;2023-02-21T03:13:58;98332.34;;;10.28;51.05
3260;BME280;22469;48.150;14.004;2023-02-21T03:16:43;98334.00;;;10.30;51.08
3260;BME280;22469;48.150;14.004;2023-02-21T03:19:20;98337.56;;;10.23;51.16
3260;BME280;22469;48.150;14.004;2023-02-21T03:21:55;98340.94;;;10.27;51.18
3260;BME280;22469;48.150;14.004;2023-02-21T03:24:26;98335.75;;;10.30;51.11
3260;BME280;22469;48.150;14.004;2023-02-21T03:26:56;98340.88;;;10.28;51.85
3260;BME280;22469;48.150;14.004;2023-02-21T03:29:27;98346.06;;;10.27;51.55
3260;BME280;22469;48.150;14.004;2023-02-21T03:32:00;98348.66;;;10.24;51.61
3260;BME280;22469;48.150;14.004;2023-02-21T03:34:49;98354.75;;;10.19;51.17
3260;BME280;22469;48.150;14.004;2023-02-21T03:37:29;98350.59;;;10.15;51.14
3260;BME280;22469;48.150;14.004;2023-02-21T03:39:57;98353.31;;;10.09;51.12
3260;BME280;22469;48.150;14.004;2023-02-21T03:42:24;98349.16;;;10.04;50.88
3260;BME280;22469;48.150;14.004;2023-02-21T03:44:51;98359.47;;;10.01;51.17
3260;BME280;22469;48.150;14.004;2023-02-21T03:47:18;98361.47;;;9.88;52.32
3260;BME280;22469;48.150;14.004;2023-02-21T03:49:45;98355.00;;;9.75;53.30
3260;BME280;22469;48.150;14.004;2023-02-21T03:52:13;98346.63;;;9.66;53.17
3260;BME280;22469;48.150;14.004;2023-02-21T03:54:40;98343.41;;;9.58;53.15
3260;BME280;22469;48.150;14.004;2023-02-21T03:57:07;98349.47;;;9.54;52.74
3260;BME280;22469;48.150;14.004;2023-02-21T03:59:34;98344.38;;;9.53;52.88
3260;BME280;22469;48.150;14.004;2023-02-21T04:02:01;98344.41;;;9.51;53.14
3260;BME280;22469;48.150;14.004;2023-02-21T04:04:29;98358.94;;;9.51;52.93
3260;BME280;22469;48.150;14.004;2023-02-21T04:06:56;98354.66;;;9.51;52.76
3260;BME280;22469;48.150;14.004;2023-02-21T04:09:23;98350.44;;;9.48;53.18
3260;BME280;22469;48.150;14.004;2023-02-21T04:11:52;98356.59;;;9.40;53.16
3260;BME280;22469;48.150;14.004;2023-02-21T04:14:19;98361.72;;;9.40;53.21
3260;BME280;22469;48.150;14.004;2023-02-21T04:16:46;98355.69;;;9.42;53.04
3260;BME280;22469;48.150;14.004;2023-02-21T04:19:13;98350.56;;;9.42;53.39
3260;BME280;22469;48.150;14.004;2023-02-21T04:21:40;98351.38;;;9.44;53.28
3260;BME280;22469;48.150;14.004;2023-02-21T04:24:08;98347.22;;;9.40;53.25
3260;BME280;22469;48.150;14.004;2023-02-21T04:26:35;98348.91;;;9.41;53.38
3260;BME280;22469;48.150;14.004;2023-02-21T04:29:02;98348.97;;;9.38;53.54
3260;BME280;22469;48.150;14.004;2023-02-21T04:31:30;98349.16;;;9.29;53.58
3260;BME280;22469;48.150;14.004;2023-02-21T04:33:58;98347.47;;;9.28;53.83
3260;BME280;22469;48.150;14.004;2023-02-21T04:36:37;98340.56;;;9.32;53.73
3260;BME280;22469;48.150;14.004;2023-02-21T04:39:05;98343.97;;;9.32;53.83
3260;BME280;22469;48.150;14.004;2023-02-21T04:41:32;98341.22;;;9.40;53.61
3260;BME280;22469;48.150;14.004;2023-02-21T04:44:00;98334.47;;;9.37;53.44
3260;BME280;22469;48.150;14.004;2023-02-21T04:46:27;98336.22;;;9.35;53.52
3260;BME280;22469;48.150;14.004;2023-02-21T04:48:54;98337.06;;;9.36;53.65
3260;BME280;22469;48.150;14.004;2023-02-21T04:51:22;98330.09;;;9.42;53.46
3260;BME280;22469;48.150;14.004;2023-02-21T04:53:52;98322.47;;;9.41;53.59
3260;BME280;22469;48.150;14.004;2023-02-21T04:56:23;98321.53;;;9.43;53.68
3260;BME280;22469;48.150;14.004;2023-02-21T04:58:53;98324.00;;;9.48;53.70
3260;BME280;22469;48.150;14.004;2023-02-21T05:01:22;98324.13;;;9.42;53.42
3260;BME280;22469;48.150;14.004;2023-02-21T05:03:49;98322.41;;;9.42;53.70
3260;BME280;22469;48.150;14.004;2023-02-21T05:06:21;98317.03;;;9.55;53.73
3260;BME280;22469;48.150;14.004;2023-02-21T05:08:49;98314.34;;;9.59;53.26
3260;BME280;22469;48.150;14.004;2023-02-21T05:11:18;98311.78;;;9.59;53.29
3260;BME280;22469;48.150;14.004;2023-02-21T05:13:46;98311.78;;;9.61;53.12
3260;BME280;22469;48.150;14.004;2023-02-21T05:16:14;98311.72;;;9.62;52.76
3260;BME280;22469;48.150;14.004;2023-02-21T05:18:43;98316.78;;;9.65;53.03
3260;BME280;22469;48.150;14.004;2023-02-21T05:21:11;98315.88;;;9.68;52.93
3260;BME280;22469;48.150;14.004;2023-02-21T05:23:40;98316.72;;;9.67;53.01
3260;BME280;22469;48.150;14.004;2023-02-21T05:26:10;98315.00;;;9.67;53.02
3260;BME280;22469;48.150;14.004;2023-02-21T05:28:39;98313.31;;;9.68;53.36
3260;BME280;22469;48.150;14.004;2023-02-21T05:31:08;98314.22;;;9.64;53.22
3260;BME280;22469;48.150;14.004;2023-02-21T05:33:35;98303.16;;;9.63;53.10
3260;BME280;22469;48.150;14.004;2023-02-21T05:36:02;98304.94;;;9.60;53.42
3260;BME280;22469;48.150;14.004;2023-02-21T05:38:30;98298.97;;;9.59;52.98
3260;BME280;22469;48.150;14.004;2023-02-21T05:40:56;98308.47;;;9.56;52.74
3260;BME280;22469;48.150;14.004;2023-02-21T05:43:23;98321.31;;;9.54;52.76
3260;BME280;22469;48.150;14.004;2023-02-21T05:45:54;98324.78;;;9.52;52.83
3260;BME280;22469;48.150;14.004;2023-02-21T05:48:22;98323.94;;;9.49;52.94
3260;BME280;22469;48.150;14.004;2023-02-21T05:50:49;98324.06;;;9.45;52.90
3260;BME280;22469;48.150;14.004;2023-02-21T05:53:16;98334.31;;;9.45;52.55
3260;BME280;22469;48.150;14.004;2023-02-21T05:55:43;98336.88;;;9.45;52.67
3260;BME280;22469;48.150;14.004;2023-02-21T05:58:10;98340.38;;;9.41;52.47
3260;BME280;22469;48.150;14.004;2023-02-21T06:00:37;98332.88;;;9.32;52.66
3260;BME280;22469;48.150;14.004;2023-02-21T06:03:04;98343.19;;;9.30;52.88
3260;BME280;22469;48.150;14.004;2023-02-21T06:05:31;98344.09;;;9.26;52.67
3260;BME280;22469;48.150;14.004;2023-02-21T06:07:58;98346.69;;;9.24;52.91
3260;BME280;22469;48.150;14.004;2023-02-21T06:10:25;98351.88;;;9.21;52.95
3260;BME280;22469;48.150;14.004;2023-02-21T06:12:52;98354.47;;;9.20;53.17
3260;BME280;22469;48.150;14.004;2023-02-21T06:15:19;98353.69;;;9.16;53.18
3260;BME280;22469;48.150;14.004;2023-02-21T06:17:46;98360.59;;;9.13;53.51
3260;BME280;22469;48.150;14.004;2023-02-21T06:20:14;98353.00;;;9.08;53.37
3260;BME280;22469;48.150;14.004;2023-02-21T06:22:43;98366.72;;;9.04;53.63
3260;BME280;22469;48.150;14.004;2023-02-21T06:25:10;98360.78;;;9.04;53.60
3260;BME280;22469;48.150;14.004;2023-02-21T06:27:37;98358.22;;;9.02;53.50
3260;BME280;22469;48.150;14.004;2023-02-21T06:30:05;98367.63;;;9.01;53.64
3260;BME280;22469;48.150;14.004;2023-02-21T06:32:33;98360.84;;;9.00;53.81
3260;BME280;22469;48.150;14.004;2023-02-21T06:35:00;98356.53;;;9.02;53.79
3260;BME280;22469;48.150;14.004;2023-02-21T06:37:28;98360.69;;;9.08;54.23
3260;BME280;22469;48.150;14.004;2023-02-21T06:39:55;98363.06;;;9.17;54.22
3260;BME280;22469;48.150;14.004;2023-02-21T06:42:22;98367.91;;;9.30;54.49
3260;BME280;22469;48.150;14.004;2023-02-21T06:44:49;98371.06;;;9.42;54.94
3260;BME280;22469;48.150;14.004;2023-02-21T06:47:16;98372.53;;;9.54;54.22
3260;BME280;22469;48.150;14.004;2023-02-21T06:49:43;98366.22;;;9.67;53.72
3260;BME280;22469;48.150;14.004;2023-02-21T06:52:10;98366.84;;;9.77;53.10
3260;BME280;22469;48.150;14.004;2023-02-21T06:54:37;98375.88;;;9.93;52.80
3260;BME280;22469;48.150;14.004;2023-02-21T06:57:05;98374.84;;;10.02;52.47
3260;BME280;22469;48.150;14.004;2023-02-21T06:59:32;98379.72;;;10.11;52.41
3260;BME280;22469;48.150;14.004;2023-02-21T07:02:00;98376.00;;;10.26;52.39
3260;BME280;22469;48.150;14.004;2023-02-21T07:04:28;98382.41;;;10.42;52.35
3260;BME280;22469;48.150;14.004;2023-02-21T07:06:55;98382.03;;;10.58;52.01
3260;BME280;22469;48.150;14.004;2023-02-21T07:09:22;98379.16;;;10.70;50.90
3260;BME280;22469;48.150;14.004;2023-02-21T07:11:49;98385.66;;;10.82;50.58
3260;BME280;22469;48.150;14.004;2023-02-21T07:14:17;98382.00;;;10.90;50.50
3260;BME280;22469;48.150;14.004;2023-02-21T07:16:44;98384.41;;;10.97;50.46
3260;BME280;22469;48.150;14.004;2023-02-21T07:19:11;98382.47;;;11.05;50.35
3260;BME280;22469;48.150;14.004;2023-02-21T07:21:41;98389.13;;;11.12;50.04
3260;BME280;22469;48.150;14.004;2023-02-21T07:24:09;98390.25;;;11.31;50.09
3260;BME280;22469;48.150;14.004;2023-02-21T07:26:36;98388.25;;;11.43;50.34
3260;BME280;22469;48.150;14.004;2023-02-21T07:29:04;98388.81;;;11.52;49.58
3260;BME280;22469;48.150;14.004;2023-02-21T07:31:32;98390.31;;;11.59;49.34
3260;BME280;22469;48.150;14.004;2023-02-21T07:33:59;98386.91;;;11.59;49.68
3260;BME280;22469;48.150;14.004;2023-02-21T07:36:26;98384.69;;;11.75;49.82
3260;BME280;22469;48.150;14.004;2023-02-21T07:38:53;98387.03;;;11.84;49.07
3260;BME280;22469;48.150;14.004;2023-02-21T07:41:21;98391.13;;;11.90;48.85
3260;BME280;22469;48.150;14.004;2023-02-21T07:43:48;98381.81;;;12.14;49.11
3260;BME280;22469;48.150;14.004;2023-02-21T07:46:16;98394.31;;;12.24;48.84
3260;BME280;22469;48.150;14.004;2023-02-21T07:48:44;98386.63;;;11.96;49.37
3260;BME280;22469;48.150;14.004;2023-02-21T07:51:11;98386.09;;;12.13;50.00
3260;BME280;22469;48.150;14.004;2023-02-21T07:53:39;98388.91;;;12.32;49.41
3260;BME280;22469;48.150;14.004;2023-02-21T07:56:06;98392.50;;;12.53;49.17
3260;BME280;22469;48.150;14.004;2023-02-21T07:58:34;98392.66;;;11.95;49.95
3260;BME280;22469;48.150;14.004;2023-02-21T08:01:05;98391.75;;;12.24;50.08
3260;BME280;22469;48.150;14.004;2023-02-21T08:03:32;98390.31;;;12.41;50.08
3260;BME280;22469;48.150;14.004;2023-02-21T08:06:00;98390.84;;;12.52;49.92
3260;BME280;22469;48.150;14.004;2023-02-21T08:08:27;98398.22;;;12.61;49.18
3260;BME280;22469;48.150;14.004;2023-02-21T08:10:54;98395.72;;;12.60;49.52
3260;BME280;22469;48.150;14.004;2023-02-21T08:13:21;98390.88;;;12.50;49.56
3260;BME280;22469;48.150;14.004;2023-02-21T08:15:48;98392.03;;;12.67;49.41
3260;BME280;22469;48.150;14.004;2023-02-21T08:18:17;98399.19;;;12.84;50.12
3260;BME280;22469;48.150;14.004;2023-02-21T08:20:51;98391.06;;;12.94;49.80
3260;BME280;22469;48.150;14.004;2023-02-21T08:23:21;98398.13;;;12.89;49.49
3260;BME280;22469;48.150;14.004;2023-02-21T08:25:48;98398.81;;;12.69;49.56
3260;BME280;22469;48.150;14.004;2023-02-21T08:28:16;98405.47;;;12.50;50.03
3260;BME280;22469;48.150;14.004;2023-02-21T08:30:43;98408.19;;;12.72;49.48
3260;BME280;22469;48.150;14.004;2023-02-21T08:33:10;98420.84;;;13.01;49.14
3260;BME280;22469;48.150;14.004;2023-02-21T08:35:38;98419.19;;;13.00;49.37
3260;BME280;22469;48.150;14.004;2023-02-21T08:38:05;98419.31;;;12.72;49.47
3260;BME280;22469;48.150;14.004;2023-02-21T08:40:32;98417.94;;;12.87;49.02
3260;BME280;22469;48.150;14.004;2023-02-21T08:42:59;98413.03;;;13.04;49.15
3260;BME280;22469;48.150;14.004;2023-02-21T08:45:28;98408.63;;;12.83;49.49
3260;BME280;22469;48.150;14.004;2023-02-21T08:47:57;98417.88;;;13.14;49.19
3260;BME280;22469;48.150;14.004;2023-02-21T08:50:26;98417.88;;;13.14;49.13
3260;BME280;22469;48.150;14.004;2023-02-21T08:52:55;98416.81;;;13.43;48.21
3260;BME280;22469;48.150;14.004;2023-02-21T08:55:23;98420.81;;;13.28;47.97
3260;BME280;22469;48.150;14.004;2023-02-21T08:57:52;98426.16;;;13.22;48.79
3260;BME280;22469;48.150;14.004;2023-02-21T09:00:21;98432.03;;;13.50;48.33
3260;BME280;22469;48.150;14.004;2023-02-21T09:02:50;98431.13;;;13.51;48.46
3260;BME280;22469;48.150;14.004;2023-02-21T09:05:29;98438.34;;;13.42;49.05
3260;BME280;22469;48.150;14.004;2023-02-21T09:07:59;98434.72;;;13.47;48.59
3260;BME280;22469;48.150;14.004;2023-02-21T09:10:31;98438.88;;;13.50;48.99
3260;BME280;22469;48.150;14.004;2023-02-21T09:13:00;98438.72;;;13.78;48.54
3260;BME280;22469;48.150;14.004;2023-02-21T09:15:28;98432.31;;;14.10;47.94
3260;BME280;22469;48.150;14.004;2023-02-21T09:17:55;98437.50;;;14.31;47.25
3260;BME280;22469;48.150;14.004;2023-02-21T09:20:24;98441.38;;;14.20;47.77
3260;BME280;22469;48.150;14.004;2023-02-21T09:22:52;98442.25;;;14.41;47.08
3260;BME280;22469;48.150;14.004;2023-02-21T09:25:21;98438.91;;;14.39;46.75
3260;BME280;22469;48.150;14.004;2023-02-21T09:27:51;98441.06;;;14.06;47.60
3260;BME280;22469;48.150;14.004;2023-02-21T09:30:23;98445.56;;;13.56;48.48
3260;BME280;22469;48.150;14.004;2023-02-21T09:32:54;98445.38;;;13.60;48.99
3260;BME280;22469;48.150;14.004;2023-02-21T09:35:22;98444.91;;;13.50;49.42
3260;BME280;22469;48.150;14.004;2023-02-21T09:37:49;98439.06;;;13.91;49.04
3260;BME280;22469;48.150;14.004;2023-02-21T09:40:26;98434.63;;;13.94;48.36
3260;BME280;22469;48.150;14.004;2023-02-21T09:42:57;98436.19;;;13.77;49.22
3260;BME280;22469;48.150;14.004;2023-02-21T09:45:36;98429.88;;;13.62;49.73
3260;BME280;22469;48.150;14.004;2023-02-21T09:48:12;98432.50;;;13.60;49.89
3260;BME280;22469;48.150;14.004;2023-02-21T09:50:48;98442.53;;;13.68;49.96
3260;BME280;22469;48.150;14.004;2023-02-21T09:53:30;98443.00;;;13.78;49.52
3260;BME280;22469;48.150;14.004;2023-02-21T09:56:13;98429.63;;;13.91;49.69
3260;BME280;22469;48.150;14.004;2023-02-21T09:58:48;98428.53;;;13.75;49.68
3260;BME280;22469;48.150;14.004;2023-02-21T10:07:17;98414.97;;;14.36;48.70
3260;BME280;22469;48.150;14.004;2023-02-21T10:09:55;98411.84;;;14.70;47.72
3260;BME280;22469;48.150;14.004;2023-02-21T10:12:36;98412.47;;;14.55;48.01
3260;BME280;22469;48.150;14.004;2023-02-21T10:20:41;98404.47;;;14.81;47.61
3260;BME280;22469;48.150;14.004;2023-02-21T10:23:20;98403.13;;;14.73;47.84
3260;BME280;22469;48.150;14.004;2023-02-21T10:25:54;98405.47;;;14.36;48.73
3260;BME280;22469;48.150;14.004;2023-02-21T10:28:25;98401.56;;;14.68;48.50
3260;BME280;22469;48.150;14.004;2023-02-21T10:30:57;98406.03;;;15.25;47.56
3260;BME280;22469;48.150;14.004;2023-02-21T10:33:29;98406.88;;;15.25;47.85
3260;BME280;22469;48.150;14.004;2023-02-21T10:35:58;98401.66;;;15.46;46.19
3260;BME280;22469;48.150;14.004;2023-02-21T10:38:25;98396.44;;;15.27;46.50
3260;BME280;22469;48.150;14.004;2023-02-21T10:41:01;98399.38;;;15.38;46.95
3260;BME280;22469;48.150;14.004;2023-02-21T10:43:39;98387.56;;;15.13;47.74
3260;BME280;22469;48.150;14.004;2023-02-21T10:46:30;98393.31;;;15.20;46.78
3260;BME280;22469;48.150;14.004;2023-02-21T10:55:06;98385.94;;;15.69;47.19
3260;BME280;22469;48.150;14.004;2023-02-21T10:57:58;98386.41;;;15.77;46.85
3260;BME280;22469;48.150;14.004;2023-02-21T11:00:36;98391.81;;;15.73;46.52
3260;BME280;22469;48.150;14.004;2023-02-21T11:03:12;98380.03;;;15.47;47.15
3260;BME280;22469;48.150;14.004;2023-02-21T11:05:49;98387.25;;;15.40;47.79
3260;BME280;22469;48.150;14.004;2023-02-21T11:08:39;98373.28;;;15.25;47.23
3260;BME280;22469;48.150;14.004;2023-02-21T11:11:09;98369.03;;;15.04;47.71
3260;BME280;22469;48.150;14.004;2023-02-21T11:13:37;98351.75;;;15.06;47.56
3260;BME280;22469;48.150;14.004;2023-02-21T11:16:15;98352.03;;;15.19;46.94
3260;BME280;22469;48.150;14.004;2023-02-21T11:18:44;98351.91;;;15.22;46.35
3260;BME280;22469;48.150;14.004;2023-02-21T11:21:14;98350.50;;;15.14;47.22
3260;BME280;22469;48.150;14.004;2023-02-21T11:23:53;98334.38;;;15.28;47.43
3260;BME280;22469;48.150;14.004;2023-02-21T11:26:30;98331.78;;;15.28;47.76
3260;BME280;22469;48.150;14.004;2023-02-21T11:29:14;98324.22;;;15.43;47.84
3260;BME280;22469;48.150;14.004;2023-02-21T11:31:44;98313.94;;;15.60;46.50
3260;BME280;22469;48.150;14.004;2023-02-21T11:34:13;98308.41;;;15.68;46.21
3260;BME280;22469;48.150;14.004;2023-02-21T11:36:43;98310.03;;;15.70;45.14
3260;BME280;22469;48.150;14.004;2023-02-21T11:39:23;98310.31;;;15.45;46.13
3260;BME280;22469;48.150;14.004;2023-02-21T11:42:00;98321.59;;;15.25;45.69
3260;BME280;22469;48.150;14.004;2023-02-21T11:44:33;98318.38;;;15.01;45.77
3260;BME280;22469;48.150;14.004;2023-02-21T11:47:25;98313.28;;;15.55;45.22
3260;BME280;22469;48.150;14.004;2023-02-21T11:52:55;98306.09;;;15.80;45.68
3260;BME280;22469;48.150;14.004;2023-02-21T11:55:26;98303.50;;;15.98;44.47
3260;BME280;22469;48.150;14.004;2023-02-21T12:00:56;98292.00;;;15.86;44.96
3260;BME280;22469;48.150;14.004;2023-02-21T12:09:12;98284.03;;;15.73;45.59
3260;BME280;22469;48.150;14.004;2023-02-21T12:15:20;98286.88;;;16.54;44.38
3260;BME280;22469;48.150;14.004;2023-02-21T12:23:32;98271.16;;;16.57;43.90
3260;BME280;22469;48.150;14.004;2023-02-21T12:26:56;98271.78;;;16.62;43.61
3260;BME280;22469;48.150;14.004;2023-02-21T12:46:38;98261.31;;;16.48;42.48
3260;BME280;22469;48.150;14.004;2023-02-21T12:52:29;98243.59;;;16.56;42.31
3260;BME280;22469;48.150;14.004;2023-02-21T12:55:17;98236.13;;;16.17;43.56
3260;BME280;22469;48.150;14.004;2023-02-21T13:00:33;98231.50;;;16.56;43.73
3260;BME280;22469;48.150;14.004;2023-02-21T13:09:40;98217.34;;;16.79;42.94
3260;BME280;22469;48.150;14.004;2023-02-21T13:12:22;98217.34;;;16.46;43.95
3260;BME280;22469;48.150;14.004;2023-02-21T13:14:58;98214.13;;;16.25;44.47
3260;BME280;22469;48.150;14.004;2023-02-21T13:17:27;98202.19;;;16.56;44.33
3260;BME280;22469;48.150;14.004;2023-02-21T13:20:01;98190.88;;;16.90;43.30
3260;BME280;22469;48.150;14.004;2023-02-21T13:28:41;98194.75;;;17.59;41.52
3260;BME280;22469;48.150;14.004;2023-02-21T13:31:21;98187.81;;;17.29;41.84
3260;BME280;22469;48.150;14.004;2023-02-21T13:33:58;98188.91;;;17.56;41.42
3260;BME280;22469;48.150;14.004;2023-02-21T13:36:39;98192.00;;;17.62;41.61
3260;BME280;22469;48.150;14.004;2023-02-21T13:39:11;98177.31;;;17.47;41.79
3260;BME280;22469;48.150;14.004;2023-02-21T13:41:46;98182.25;;;17.51;41.82
3260;BME280;22469;48.150;14.004;2023-02-21T13:44:31;98175.19;;;17.53;41.51
3260;BME280;22469;48.150;14.004;2023-02-21T13:47:10;98179.59;;;17.67;41.17
3260;BME280;22469;48.150;14.004;2023-02-21T13:52:25;98171.25;;;17.92;40.32
3260;BME280;22469;48.150;14.004;2023-02-21T14:11:19;98132.56;;;17.43;40.54
3260;BME280;22469;48.150;14.004;2023-02-21T14:13:51;98134.47;;;17.70;41.52
3260;BME280;22469;48.150;14.004;2023-02-21T14:16:33;98125.19;;;17.51;41.31
3260;BME280;22469;48.150;14.004;2023-02-21T14:19:07;98131.72;;;17.43;41.98
3260;BME280;22469;48.150;14.004;2023-02-21T14:21:40;98119.91;;;17.53;42.18
3260;BME280;22469;48.150;14.004;2023-02-21T14:37:21;98104.94;;;17.72;41.20
3260;BME280;22469;48.150;14.004;2023-02-21T15:03:20;98093.59;;;18.45;39.62
3260;BME280;22469;48.150;14.004;2023-02-21T15:08:20;98097.56;;;18.09;40.27
3260;BME280;22469;48.150;14.004;2023-02-21T15:10:52;98093.53;;;18.32;40.23
3260;BME280;22469;48.150;14.004;2023-02-21T15:13:34;98093.25;;;18.37;40.13
3260;BME280;22469;48.150;14.004;2023-02-21T15:16:07;98090.75;;;18.77;40.03
3260;BME280;22469;48.150;14.004;2023-02-21T15:18:37;98077.41;;;18.96;39.44
3260;BME280;22469;48.150;14.004;2023-02-21T15:21:14;98081.88;;;18.93;39.05
3260;BME280;22469;48.150;14.004;2023-02-21T15:23:46;98083.53;;;19.22;38.72
3260;BME280;22469;48.150;14.004;2023-02-21T15:26:20;98084.38;;;19.48;38.19
3260;BME280;22469;48.150;14.004;2023-02-21T15:31:43;98077.81;;;19.55;37.60
3260;BME280;22469;48.150;14.004;2023-02-21T15:34:21;98077.31;;;19.50;38.35
3260;BME280;22469;48.150;14.004;2023-02-21T15:37:03;98084.25;;;19.36;37.91
3260;BME280;22469;48.150;14.004;2023-02-21T15:39:36;98078.84;;;19.27;38.13
3260;BME280;22469;48.150;14.004;2023-02-21T15:42:07;98085.81;;;19.26;38.36
3260;BME280;22469;48.150;14.004;2023-02-21T15:44:37;98075.38;;;19.13;38.86
3260;BME280;22469;48.150;14.004;2023-02-21T15:47:11;98074.44;;;19.02;38.77
3260;BME280;22469;48.150;14.004;2023-02-21T15:50:44;98072.47;;;19.05;39.24
3260;BME280;22469;48.150;14.004;2023-02-21T15:53:17;98066.91;;;18.84;39.58
3260;BME280;22469;48.150;14.004;2023-02-21T15:55:47;98059.03;;;18.72;39.77
3260;BME280;22469;48.150;14.004;2023-02-21T15:58:24;98069.91;;;18.64;40.19
3260;BME280;22469;48.150;14.004;2023-02-21T16:01:11;98060.53;;;18.61;40.87
3260;BME280;22469;48.150;14.004;2023-02-21T16:03:43;98068.81;;;18.54;40.98
3260;BME280;22469;48.150;14.004;2023-02-21T16:06:27;98069.22;;;18.47;41.66
3260;BME280;22469;48.150;14.004;2023-02-21T16:09:04;98063.09;;;18.34;42.19
3260;BME280;22469;48.150;14.004;2023-02-21T16:17:39;98058.44;;;18.12;42.69
3260;BME280;22469;48.150;14.004;2023-02-21T16:20:57;98059.94;;;18.02;42.98
3260;BME280;22469;48.150;14.004;2023-02-21T16:23:22;98061.50;;;17.90;43.67
3260;BME280;22469;48.150;14.004;2023-02-21T16:28:37;98066.94;;;17.71;44.64
3260;BME280;22469;48.150;14.004;2023-02-21T16:31:13;98063.06;;;17.64;44.72